sensor_id;sensor_type;location;lat;lon;timestamp;P1;durP1;ratioP1;P2;durP2;ratioP2
74401;SDS011;62837;51.082;13.744;2023-02-28T00:01:36;5.20;;;2.60;;
74401;SDS011;62837;51.082;13.744;2023-02-28T00:04:07;6.10;;;3.50;;
74401;SDS011;62837;51.082;13.744;2023-02-28T00:06:38;6.30;;;2.30;;
74401;SDS011;62837;51.082;13.744;2023-02-28T00:09:09;6.10;;;3.40;;
74401;SDS011;62837;51.082;13.744;2023-02-28T00:11:40;4.70;;;2.40;;
74401;SDS011;62837;51.082;13.744;2023-02-28T00:14:11;8.20;;;2.80;;
74401;SDS011;62837;51.082;13.744;2023-02-28T00:16:41;5.70;;;2.10;;
74401;SDS011;62837;51.082;13.744;2023-02-28T00:19:12;8.10;;;3.40;;
74401;SDS011;62837;51.082;13.744;2023-02-28T00:21:43;4.90;;;2.60;;
74401;SDS011;62837;51.082;13.744;2023-02-28T00:24:14;6.60;;;3.20;;
74401;SDS011;62837;51.082;13.744;2023-02-28T00:26:44;4.40;;;2.50;;
74401;SDS011;62837;51.082;13.744;2023-02-28T00:29:15;4.10;;;2.30;;
74401;SDS011;62837;51.082;13.744;2023-02-28T00:31:46;5.50;;;2.70;;
74401;SDS011;62837;51.082;13.744;2023-02-28T00:34:17;4.00;;;2.20;;
74401;SDS011;62837;51.082;13.744;2023-02-28T00:36:47;5.10;;;3.10;;
74401;SDS011;62837;51.082;13.744;2023-02-28T00:39:18;4.70;;;2.60;;
74401;SDS011;62837;51.082;13.744;2023-02-28T00:41:49;7.20;;;2.90;;
74401;SDS011;62837;51.082;13.744;2023-02-28T00:44:20;4.80;;;2.60;;
74401;SDS011;62837;51.082;13.744;2023-02-28T00:46:50;6.90;;;3.70;;
74401;SDS011;62837;51.082;13.744;2023-02-28T00:49:25;7.30;;;3.20;;
74401;SDS011;62837;51.082;13.744;2023-02-28T00:51:55;6.60;;;3.30;;
74401;SDS011;62837;51.082;13.744;2023-02-28T00:54:26;6.90;;;3.00;;
74401;SDS011;62837;51.082;13.744;2023-02-28T00:56:57;5.10;;;3.00;;
74401;SDS011;62837;51.082;13.744;2023-02-28T00:59:28;7.10;;;3.00;;
74401;SDS011;62837;51.082;13.744;2023-02-28T01:01:59;6.00;;;3.20;;
74401;SDS011;62837;51.082;13.744;2023-02-28T01:04:29;7.40;;;3.10;;
74401;SDS011;62837;51.082;13.744;2023-02-28T01:07:01;4.50;;;2.40;;
74401;SDS011;62837;51.082;13.744;2023-02-28T01:09:32;7.90;;;4.00;;
74401;SDS011;62837;51.082;13.744;2023-02-28T01:12:03;6.90;;;3.40;;
74401;SDS011;62837;51.082;13.744;2023-02-28T01:14:35;5.50;;;2.60;;
74401;SDS011;62837;51.082;13.744;2023-02-28T01:17:06;5.00;;;2.20;;
74401;SDS011;62837;51.082;13.744;2023-02-28T01:19:36;4.50;;;2.30;;
74401;SDS011;62837;51.082;13.744;2023-02-28T01:22:07;7.40;;;3.10;;
74401;SDS011;62837;51.082;13.744;2023-02-28T01:24:38;6.10;;;2.90;;
74401;SDS011;62837;51.082;13.744;2023-02-28T01:27:12;7.40;;;3.00;;
74401;SDS011;62837;51.082;13.744;2023-02-28T01:29:43;4.90;;;2.60;;
74401;SDS011;62837;51.082;13.744;2023-02-28T01:32:14;5.50;;;3.10;;
74401;SDS011;62837;51.082;13.744;2023-02-28T01:34:45;5.80;;;3.10;;
74401;SDS011;62837;51.082;13.744;2023-02-28T01:37:15;9.10;;;3.70;;
74401;SDS011;62837;51.082;13.744;2023-02-28T01:39:46;5.00;;;2.90;;
74401;SDS011;62837;51.082;13.744;2023-02-28T01:42:17;4.80;;;2.90;;
74401;SDS011;62837;51.082;13.744;2023-02-28T01:45:03;8.30;;;3.20;;
74401;SDS011;62837;51.082;13.744;2023-02-28T01:47:47;4.80;;;2.60;;
74401;SDS011;62837;51.082;13.744;2023-02-28T01:50:20;5.80;;;2.60;;
74401;SDS011;62837;51.082;13.744;2023-02-28T01:52:55;4.60;;;2.30;;
74401;SDS011;62837;51.082;13.744;2023-02-28T01:55:31;5.60;;;3.20;;
74401;SDS011;62837;51.082;13.744;2023-02-28T01:58:04;4.10;;;2.60;;
74401;SDS011;62837;51.082;13.744;2023-02-28T02:00:36;6.00;;;2.70;;
74401;SDS011;62837;51.082;13.744;2023-02-28T02:03:11;4.90;;;2.40;;
74401;SDS011;62837;51.082;13.744;2023-02-28T02:05:46;6.00;;;2.40;;
74401;SDS011;62837;51.082;13.744;2023-02-28T02:08:19;5.20;;;2.40;;
74401;SDS011;62837;51.082;13.744;2023-02-28T02:10:51;6.10;;;3.00;;
74401;SDS011;62837;51.082;13.744;2023-02-28T02:16:10;3.50;;;3.00;;
74401;SDS011;62837;51.082;13.744;2023-02-28T02:18:52;5.50;;;2.90;;
74401;SDS011;62837;51.082;13.744;2023-02-28T02:21:40;4.90;;;2.70;;
74401;SDS011;62837;51.082;13.744;2023-02-28T02:24:35;6.70;;;2.90;;
74401;SDS011;62837;51.082;13.744;2023-02-28T02:27:29;6.90;;;2.70;;
74401;SDS011;62837;51.082;13.744;2023-02-28T02:30:25;7.00;;;3.20;;
74401;SDS011;62837;51.082;13.744;2023-02-28T02:33:24;3.00;;;1.60;;
74401;SDS011;62837;51.082;13.744;2023-02-28T02:36:08;6.20;;;3.40;;
74401;SDS011;62837;51.082;13.744;2023-02-28T02:38:47;7.60;;;2.80;;
74401;SDS011;62837;51.082;13.744;2023-02-28T02:41:23;6.00;;;4.10;;
74401;SDS011;62837;51.082;13.744;2023-02-28T02:44:02;6.40;;;3.10;;
74401;SDS011;62837;51.082;13.744;2023-02-28T02:46:36;5.10;;;2.90;;
74401;SDS011;62837;51.082;13.744;2023-02-28T02:49:13;6.40;;;2.50;;
74401;SDS011;62837;51.082;13.744;2023-02-28T02:51:50;7.40;;;3.30;;
74401;SDS011;62837;51.082;13.744;2023-02-28T02:54:24;5.50;;;2.50;;
74401;SDS011;62837;51.082;13.744;2023-02-28T02:56:59;5.90;;;3.40;;
74401;SDS011;62837;51.082;13.744;2023-02-28T02:59:33;7.40;;;2.90;;
74401;SDS011;62837;51.082;13.744;2023-02-28T03:02:08;7.80;;;3.60;;
74401;SDS011;62837;51.082;13.744;2023-02-28T03:04:45;3.70;;;2.30;;
74401;SDS011;62837;51.082;13.744;2023-02-28T03:07:21;6.20;;;2.90;;
74401;SDS011;62837;51.082;13.744;2023-02-28T03:09:52;4.20;;;2.80;;
74401;SDS011;62837;51.082;13.744;2023-02-28T03:12:26;5.10;;;2.40;;
74401;SDS011;62837;51.082;13.744;2023-02-28T03:17:47;5.10;;;2.90;;
74401;SDS011;62837;51.082;13.744;2023-02-28T03:20:35;5.10;;;3.00;;
74401;SDS011;62837;51.082;13.744;2023-02-28T03:23:16;4.50;;;2.70;;
74401;SDS011;62837;51.082;13.744;2023-02-28T03:25:54;6.30;;;3.50;;
74401;SDS011;62837;51.082;13.744;2023-02-28T03:28:34;3.40;;;2.00;;
74401;SDS011;62837;51.082;13.744;2023-02-28T03:31:12;5.00;;;2.50;;
74401;SDS011;62837;51.082;13.744;2023-02-28T03:33:50;7.70;;;3.90;;
74401;SDS011;62837;51.082;13.744;2023-02-28T03:36:26;7.70;;;3.80;;
74401;SDS011;62837;51.082;13.744;2023-02-28T03:38:59;7.90;;;2.50;;
74401;SDS011;62837;51.082;13.744;2023-02-28T03:41:35;5.30;;;2.70;;
74401;SDS011;62837;51.082;13.744;2023-02-28T03:44:10;6.70;;;3.30;;
74401;SDS011;62837;51.082;13.744;2023-02-28T03:46:46;6.40;;;3.00;;
74401;SDS011;62837;51.082;13.744;2023-02-28T03:49:23;5.80;;;3.70;;
74401;SDS011;62837;51.082;13.744;2023-02-28T03:51:57;6.10;;;2.50;;
74401;SDS011;62837;51.082;13.744;2023-02-28T03:54:31;5.20;;;3.00;;
74401;SDS011;62837;51.082;13.744;2023-02-28T03:57:05;5.90;;;3.20;;
74401;SDS011;62837;51.082;13.744;2023-02-28T03:59:42;5.80;;;3.00;;
74401;SDS011;62837;51.082;13.744;2023-02-28T04:02:17;6.50;;;2.80;;
74401;SDS011;62837;51.082;13.744;2023-02-28T04:04:47;8.70;;;3.20;;
74401;SDS011;62837;51.082;13.744;2023-02-28T04:07:19;3.50;;;1.70;;
74401;SDS011;62837;51.082;13.744;2023-02-28T04:09:49;6.90;;;3.30;;
74401;SDS011;62837;51.082;13.744;2023-02-28T04:12:20;6.10;;;3.80;;
74401;SDS011;62837;51.082;13.744;2023-02-28T04:14:51;6.50;;;3.70;;
74401;SDS011;62837;51.082;13.744;2023-02-28T04:17:22;8.20;;;3.10;;
74401;SDS011;62837;51.082;13.744;2023-02-28T04:19:53;7.30;;;3.40;;
74401;SDS011;62837;51.082;13.744;2023-02-28T04:22:25;5.30;;;2.40;;
74401;SDS011;62837;51.082;13.744;2023-02-28T04:24:56;6.80;;;3.80;;
74401;SDS011;62837;51.082;13.744;2023-02-28T04:27:27;7.10;;;3.50;;
74401;SDS011;62837;51.082;13.744;2023-02-28T04:29:59;7.40;;;3.40;;
74401;SDS011;62837;51.082;13.744;2023-02-28T04:32:30;7.10;;;2.80;;
74401;SDS011;62837;51.082;13.744;2023-02-28T04:35:01;8.90;;;4.00;;
74401;SDS011;62837;51.082;13.744;2023-02-28T04:37:32;6.70;;;4.00;;
74401;SDS011;62837;51.082;13.744;2023-02-28T04:40:05;7.60;;;4.50;;
74401;SDS011;62837;51.082;13.744;2023-02-28T04:42:37;7.80;;;3.40;;
74401;SDS011;62837;51.082;13.744;2023-02-28T04:45:09;8.40;;;4.50;;
74401;SDS011;62837;51.082;13.744;2023-02-28T04:47:40;7.30;;;4.70;;
74401;SDS011;62837;51.082;13.744;2023-02-28T04:50:11;8.60;;;4.60;;
74401;SDS011;62837;51.082;13.744;2023-02-28T04:52:42;11.00;;;5.10;;
74401;SDS011;62837;51.082;13.744;2023-02-28T04:55:13;9.10;;;3.70;;
74401;SDS011;62837;51.082;13.744;2023-02-28T04:57:44;12.00;;;3.50;;
74401;SDS011;62837;51.082;13.744;2023-02-28T05:00:15;10.90;;;5.20;;
74401;SDS011;62837;51.082;13.744;2023-02-28T05:02:46;9.10;;;3.60;;
74401;SDS011;62837;51.082;13.744;2023-02-28T05:05:17;7.80;;;3.60;;
74401;SDS011;62837;51.082;13.744;2023-02-28T05:07:48;9.20;;;4.60;;
74401;SDS011;62837;51.082;13.744;2023-02-28T05:10:19;10.40;;;5.40;;
74401;SDS011;62837;51.082;13.744;2023-02-28T05:12:50;6.00;;;3.60;;
74401;SDS011;62837;51.082;13.744;2023-02-28T05:15:21;9.00;;;4.00;;
74401;SDS011;62837;51.082;13.744;2023-02-28T05:17:52;3.50;;;1.90;;
74401;SDS011;62837;51.082;13.744;2023-02-28T05:20:22;9.10;;;4.60;;
74401;SDS011;62837;51.082;13.744;2023-02-28T05:22:53;10.10;;;4.90;;
74401;SDS011;62837;51.082;13.744;2023-02-28T05:25:25;9.90;;;4.10;;
74401;SDS011;62837;51.082;13.744;2023-02-28T05:27:55;10.10;;;4.90;;
74401;SDS011;62837;51.082;13.744;2023-02-28T05:30:26;8.90;;;4.60;;
74401;SDS011;62837;51.082;13.744;2023-02-28T05:32:57;6.30;;;3.40;;
74401;SDS011;62837;51.082;13.744;2023-02-28T05:35:28;9.00;;;4.00;;
74401;SDS011;62837;51.082;13.744;2023-02-28T05:37:59;7.70;;;4.00;;
74401;SDS011;62837;51.082;13.744;2023-02-28T05:40:30;10.10;;;4.30;;
74401;SDS011;62837;51.082;13.744;2023-02-28T05:43:01;8.00;;;4.50;;
74401;SDS011;62837;51.082;13.744;2023-02-28T05:45:32;7.30;;;3.90;;
74401;SDS011;62837;51.082;13.744;2023-02-28T05:48:04;8.20;;;4.10;;
74401;SDS011;62837;51.082;13.744;2023-02-28T05:50:36;8.20;;;4.50;;
74401;SDS011;62837;51.082;13.744;2023-02-28T05:53:07;13.00;;;4.80;;
74401;SDS011;62837;51.082;13.744;2023-02-28T05:55:38;11.60;;;4.70;;
74401;SDS011;62837;51.082;13.744;2023-02-28T05:58:09;9.10;;;4.60;;
74401;SDS011;62837;51.082;13.744;2023-02-28T06:00:40;10.90;;;4.80;;
74401;SDS011;62837;51.082;13.744;2023-02-28T06:03:11;13.80;;;4.40;;
74401;SDS011;62837;51.082;13.744;2023-02-28T06:05:42;8.70;;;3.70;;
74401;SDS011;62837;51.082;13.744;2023-02-28T06:08:12;9.80;;;3.80;;
74401;SDS011;62837;51.082;13.744;2023-02-28T06:10:43;11.80;;;4.10;;
74401;SDS011;62837;51.082;13.744;2023-02-28T06:13:14;13.70;;;5.60;;
74401;SDS011;62837;51.082;13.744;2023-02-28T06:15:44;10.00;;;4.60;;
74401;SDS011;62837;51.082;13.744;2023-02-28T06:18:15;11.50;;;5.20;;
74401;SDS011;62837;51.082;13.744;2023-02-28T06:20:46;10.10;;;4.60;;
74401;SDS011;62837;51.082;13.744;2023-02-28T06:23:23;6.90;;;3.70;;
74401;SDS011;62837;51.082;13.744;2023-02-28T06:25:54;8.00;;;4.30;;
74401;SDS011;62837;51.082;13.744;2023-02-28T06:28:26;13.10;;;5.00;;
74401;SDS011;62837;51.082;13.744;2023-02-28T06:30:57;9.20;;;4.70;;
74401;SDS011;62837;51.082;13.744;2023-02-28T06:33:27;10.40;;;4.30;;
74401;SDS011;62837;51.082;13.744;2023-02-28T06:35:58;9.80;;;4.60;;
74401;SDS011;62837;51.082;13.744;2023-02-28T06:38:29;11.90;;;5.10;;
74401;SDS011;62837;51.082;13.744;2023-02-28T06:41:01;8.20;;;3.40;;
74401;SDS011;62837;51.082;13.744;2023-02-28T06:43:33;9.70;;;3.80;;
74401;SDS011;62837;51.082;13.744;2023-02-28T06:46:07;11.00;;;4.60;;
74401;SDS011;62837;51.082;13.744;2023-02-28T06:48:40;8.50;;;4.10;;
74401;SDS011;62837;51.082;13.744;2023-02-28T06:51:12;29.80;;;11.60;;
74401;SDS011;62837;51.082;13.744;2023-02-28T06:53:45;12.80;;;6.00;;
74401;SDS011;62837;51.082;13.744;2023-02-28T06:56:17;12.60;;;5.40;;
74401;SDS011;62837;51.082;13.744;2023-02-28T06:58:49;14.90;;;6.20;;
74401;SDS011;62837;51.082;13.744;2023-02-28T07:01:20;10.20;;;5.10;;
74401;SDS011;62837;51.082;13.744;2023-02-28T07:03:52;21.40;;;6.60;;
74401;SDS011;62837;51.082;13.744;2023-02-28T07:06:24;13.70;;;6.60;;
74401;SDS011;62837;51.082;13.744;2023-02-28T07:08:58;12.90;;;5.90;;
74401;SDS011;62837;51.082;13.744;2023-02-28T07:11:29;17.00;;;6.90;;
74401;SDS011;62837;51.082;13.744;2023-02-28T07:14:00;12.00;;;5.80;;
74401;SDS011;62837;51.082;13.744;2023-02-28T07:16:31;14.50;;;6.40;;
74401;SDS011;62837;51.082;13.744;2023-02-28T07:19:02;11.50;;;4.90;;
74401;SDS011;62837;51.082;13.744;2023-02-28T07:21:33;12.80;;;5.40;;
74401;SDS011;62837;51.082;13.744;2023-02-28T07:24:05;7.50;;;3.90;;
74401;SDS011;62837;51.082;13.744;2023-02-28T07:26:36;16.80;;;5.80;;
74401;SDS011;62837;51.082;13.744;2023-02-28T07:29:07;10.90;;;5.90;;
74401;SDS011;62837;51.082;13.744;2023-02-28T07:31:38;12.20;;;5.60;;
74401;SDS011;62837;51.082;13.744;2023-02-28T07:34:08;10.70;;;6.00;;
74401;SDS011;62837;51.082;13.744;2023-02-28T07:36:39;11.60;;;6.40;;
74401;SDS011;62837;51.082;13.744;2023-02-28T07:39:10;11.90;;;5.50;;
74401;SDS011;62837;51.082;13.744;2023-02-28T07:41:41;11.50;;;5.90;;
74401;SDS011;62837;51.082;13.744;2023-02-28T07:44:11;13.10;;;7.00;;
74401;SDS011;62837;51.082;13.744;2023-02-28T07:46:42;12.90;;;6.30;;
74401;SDS011;62837;51.082;13.744;2023-02-28T07:49:13;10.80;;;6.40;;
74401;SDS011;62837;51.082;13.744;2023-02-28T07:51:44;11.40;;;5.30;;
74401;SDS011;62837;51.082;13.744;2023-02-28T07:54:14;10.50;;;5.50;;
74401;SDS011;62837;51.082;13.744;2023-02-28T07:56:45;10.20;;;5.60;;
74401;SDS011;62837;51.082;13.744;2023-02-28T07:59:16;9.80;;;5.00;;
74401;SDS011;62837;51.082;13.744;2023-02-28T08:01:46;11.40;;;7.10;;
74401;SDS011;62837;51.082;13.744;2023-02-28T08:04:18;17.80;;;7.00;;
74401;SDS011;62837;51.082;13.744;2023-02-28T08:06:49;12.80;;;6.30;;
74401;SDS011;62837;51.082;13.744;2023-02-28T08:09:20;11.30;;;6.20;;
74401;SDS011;62837;51.082;13.744;2023-02-28T08:11:51;11.50;;;6.80;;
74401;SDS011;62837;51.082;13.744;2023-02-28T08:14:22;18.20;;;8.70;;
74401;SDS011;62837;51.082;13.744;2023-02-28T08:16:53;13.00;;;6.70;;
74401;SDS011;62837;51.082;13.744;2023-02-28T08:19:23;11.90;;;6.00;;
74401;SDS011;62837;51.082;13.744;2023-02-28T08:21:54;12.20;;;6.60;;
74401;SDS011;62837;51.082;13.744;2023-02-28T08:24:25;16.50;;;7.00;;
74401;SDS011;62837;51.082;13.744;2023-02-28T08:26:56;11.90;;;6.40;;
74401;SDS011;62837;51.082;13.744;2023-02-28T08:29:27;14.20;;;5.60;;
74401;SDS011;62837;51.082;13.744;2023-02-28T08:31:58;12.30;;;6.30;;
74401;SDS011;62837;51.082;13.744;2023-02-28T08:34:29;13.10;;;5.90;;
74401;SDS011;62837;51.082;13.744;2023-02-28T08:37:00;12.20;;;7.00;;
74401;SDS011;62837;51.082;13.744;2023-02-28T08:39:31;8.00;;;4.90;;
74401;SDS011;62837;51.082;13.744;2023-02-28T08:42:05;11.10;;;6.10;;
74401;SDS011;62837;51.082;13.744;2023-02-28T08:44:37;9.40;;;4.40;;
74401;SDS011;62837;51.082;13.744;2023-02-28T08:47:08;10.60;;;5.40;;
74401;SDS011;62837;51.082;13.744;2023-02-28T08:49:39;5.60;;;3.10;;
74401;SDS011;62837;51.082;13.744;2023-02-28T08:52:10;8.30;;;4.60;;
74401;SDS011;62837;51.082;13.744;2023-02-28T08:54:40;9.10;;;4.60;;
74401;SDS011;62837;51.082;13.744;2023-02-28T08:57:11;7.30;;;3.00;;
74401;SDS011;62837;51.082;13.744;2023-02-28T08:59:43;6.80;;;3.80;;
74401;SDS011;62837;51.082;13.744;2023-02-28T09:02:13;9.20;;;4.30;;
74401;SDS011;62837;51.082;13.744;2023-02-28T09:04:44;4.80;;;2.90;;
74401;SDS011;62837;51.082;13.744;2023-02-28T09:07:15;9.30;;;3.50;;
74401;SDS011;62837;51.082;13.744;2023-02-28T09:09:46;7.20;;;4.00;;
74401;SDS011;62837;51.082;13.744;2023-02-28T09:12:23;6.30;;;3.50;;
74401;SDS011;62837;51.082;13.744;2023-02-28T09:14:54;9.00;;;4.10;;
74401;SDS011;62837;51.082;13.744;2023-02-28T09:17:25;7.90;;;3.70;;
74401;SDS011;62837;51.082;13.744;2023-02-28T09:19:57;6.50;;;3.50;;
74401;SDS011;62837;51.082;13.744;2023-02-28T09:22:28;7.60;;;4.40;;
74401;SDS011;62837;51.082;13.744;2023-02-28T09:24:59;6.80;;;3.30;;
74401;SDS011;62837;51.082;13.744;2023-02-28T09:27:29;7.50;;;3.70;;
74401;SDS011;62837;51.082;13.744;2023-02-28T09:30:00;6.70;;;4.00;;
74401;SDS011;62837;51.082;13.744;2023-02-28T09:32:31;6.60;;;3.50;;
74401;SDS011;62837;51.082;13.744;2023-02-28T09:35:03;6.80;;;3.90;;
74401;SDS011;62837;51.082;13.744;2023-02-28T09:37:35;7.60;;;3.60;;
74401;SDS011;62837;51.082;13.744;2023-02-28T09:40:07;6.80;;;3.60;;
74401;SDS011;62837;51.082;13.744;2023-02-28T09:42:40;8.00;;;4.10;;
74401;SDS011;62837;51.082;13.744;2023-02-28T09:45:15;7.00;;;3.60;;
74401;SDS011;62837;51.082;13.744;2023-02-28T09:47:52;9.20;;;3.90;;
74401;SDS011;62837;51.082;13.744;2023-02-28T09:50:30;7.30;;;3.40;;
74401;SDS011;62837;51.082;13.744;2023-02-28T09:53:06;6.80;;;3.60;;
74401;SDS011;62837;51.082;13.744;2023-02-28T09:55:44;5.50;;;3.50;;
74401;SDS011;62837;51.082;13.744;2023-02-28T09:58:20;5.50;;;3.60;;
74401;SDS011;62837;51.082;13.744;2023-02-28T10:00:58;7.50;;;3.50;;
74401;SDS011;62837;51.082;13.744;2023-02-28T10:03:35;4.40;;;2.70;;
74401;SDS011;62837;51.082;13.744;2023-02-28T10:06:13;7.20;;;3.60;;
74401;SDS011;62837;51.082;13.744;2023-02-28T10:08:47;7.90;;;3.40;;
74401;SDS011;62837;51.082;13.744;2023-02-28T10:11:25;7.80;;;3.90;;
74401;SDS011;62837;51.082;13.744;2023-02-28T10:14:00;5.00;;;2.90;;
74401;SDS011;62837;51.082;13.744;2023-02-28T10:16:34;7.40;;;3.10;;
74401;SDS011;62837;51.082;13.744;2023-02-28T10:19:14;7.40;;;3.30;;
74401;SDS011;62837;51.082;13.744;2023-02-28T10:21:49;8.50;;;3.80;;
74401;SDS011;62837;51.082;13.744;2023-02-28T10:24:26;6.50;;;3.30;;
74401;SDS011;62837;51.082;13.744;2023-02-28T10:27:02;7.20;;;3.70;;
74401;SDS011;62837;51.082;13.744;2023-02-28T10:29:42;6.90;;;3.20;;
74401;SDS011;62837;51.082;13.744;2023-02-28T10:32:14;6.80;;;3.10;;
74401;SDS011;62837;51.082;13.744;2023-02-28T10:34:47;7.90;;;3.90;;
74401;SDS011;62837;51.082;13.744;2023-02-28T10:37:24;7.50;;;4.10;;
74401;SDS011;62837;51.082;13.744;2023-02-28T10:39:55;6.00;;;3.20;;
74401;SDS011;62837;51.082;13.744;2023-02-28T10:42:27;8.20;;;3.90;;
74401;SDS011;62837;51.082;13.744;2023-02-28T10:45:11;7.60;;;4.00;;
74401;SDS011;62837;51.082;13.744;2023-02-28T10:47:51;7.00;;;4.00;;
74401;SDS011;62837;51.082;13.744;2023-02-28T10:50:28;7.50;;;4.30;;
74401;SDS011;62837;51.082;13.744;2023-02-28T10:53:07;7.70;;;3.20;;
74401;SDS011;62837;51.082;13.744;2023-02-28T10:55:46;8.50;;;4.10;;
74401;SDS011;62837;51.082;13.744;2023-02-28T10:58:29;7.80;;;4.10;;
74401;SDS011;62837;51.082;13.744;2023-02-28T11:01:01;7.60;;;4.60;;
74401;SDS011;62837;51.082;13.744;2023-02-28T11:03:33;7.90;;;3.10;;
74401;SDS011;62837;51.082;13.744;2023-02-28T11:06:08;8.30;;;5.10;;
74401;SDS011;62837;51.082;13.744;2023-02-28T11:08:46;10.20;;;4.60;;
74401;SDS011;62837;51.082;13.744;2023-02-28T11:11:18;9.70;;;4.90;;
74401;SDS011;62837;51.082;13.744;2023-02-28T11:13:53;8.90;;;4.50;;
74401;SDS011;62837;51.082;13.744;2023-02-28T11:16:33;7.90;;;3.70;;
74401;SDS011;62837;51.082;13.744;2023-02-28T11:19:06;8.30;;;4.40;;
74401;SDS011;62837;51.082;13.744;2023-02-28T11:21:50;6.60;;;3.20;;
74401;SDS011;62837;51.082;13.744;2023-02-28T11:24:25;6.90;;;3.30;;
74401;SDS011;62837;51.082;13.744;2023-02-28T11:26:58;5.60;;;2.90;;
74401;SDS011;62837;51.082;13.744;2023-02-28T11:29:30;8.70;;;5.10;;
74401;SDS011;62837;51.082;13.744;2023-02-28T11:32:03;7.00;;;4.00;;
74401;SDS011;62837;51.082;13.744;2023-02-28T11:34:41;9.40;;;5.30;;
74401;SDS011;62837;51.082;13.744;2023-02-28T11:37:14;10.60;;;5.80;;
74401;SDS011;62837;51.082;13.744;2023-02-28T11:39:47;6.60;;;4.20;;
74401;SDS011;62837;51.082;13.744;2023-02-28T11:45:29;7.50;;;4.40;;
74401;SDS011;62837;51.082;13.744;2023-02-28T11:48:15;6.90;;;4.30;;
74401;SDS011;62837;51.082;13.744;2023-02-28T11:50:54;9.40;;;4.60;;
74401;SDS011;62837;51.082;13.744;2023-02-28T11:53:38;9.00;;;5.40;;
74401;SDS011;62837;51.082;13.744;2023-02-28T11:56:28;9.40;;;5.10;;
74401;SDS011;62837;51.082;13.744;2023-02-28T11:59:05;10.80;;;5.30;;
74401;SDS011;62837;51.082;13.744;2023-02-28T12:01:51;8.50;;;4.20;;
74401;SDS011;62837;51.082;13.744;2023-02-28T12:04:34;9.30;;;4.70;;
74401;SDS011;62837;51.082;13.744;2023-02-28T12:07:15;8.00;;;4.20;;
74401;SDS011;62837;51.082;13.744;2023-02-28T12:09:57;8.40;;;4.40;;
74401;SDS011;62837;51.082;13.744;2023-02-28T12:12:40;9.30;;;5.40;;
74401;SDS011;62837;51.082;13.744;2023-02-28T12:18:13;8.30;;;5.40;;
74401;SDS011;62837;51.082;13.744;2023-02-28T12:20:57;10.20;;;5.00;;
74401;SDS011;62837;51.082;13.744;2023-02-28T12:23:41;8.30;;;4.90;;
74401;SDS011;62837;51.082;13.744;2023-02-28T12:26:30;7.80;;;4.90;;
74401;SDS011;62837;51.082;13.744;2023-02-28T12:29:10;7.80;;;4.40;;
74401;SDS011;62837;51.082;13.744;2023-02-28T12:31:47;12.60;;;5.50;;
74401;SDS011;62837;51.082;13.744;2023-02-28T12:34:24;11.20;;;5.70;;
74401;SDS011;62837;51.082;13.744;2023-02-28T12:36:57;7.20;;;3.80;;
74401;SDS011;62837;51.082;13.744;2023-02-28T12:39:33;7.50;;;4.20;;
74401;SDS011;62837;51.082;13.744;2023-02-28T12:42:19;11.20;;;5.30;;
74401;SDS011;62837;51.082;13.744;2023-02-28T12:44:54;11.70;;;5.60;;
74401;SDS011;62837;51.082;13.744;2023-02-28T12:47:28;7.80;;;4.40;;
74401;SDS011;62837;51.082;13.744;2023-02-28T12:49:59;10.00;;;6.30;;
74401;SDS011;62837;51.082;13.744;2023-02-28T12:52:37;5.80;;;3.70;;
74401;SDS011;62837;51.082;13.744;2023-02-28T12:55:17;8.20;;;4.70;;
74401;SDS011;62837;51.082;13.744;2023-02-28T12:57:55;9.00;;;5.40;;
74401;SDS011;62837;51.082;13.744;2023-02-28T13:00:38;6.10;;;3.20;;
74401;SDS011;62837;51.082;13.744;2023-02-28T13:03:29;8.30;;;4.70;;
74401;SDS011;62837;51.082;13.744;2023-02-28T13:06:23;9.10;;;5.40;;
74401;SDS011;62837;51.082;13.744;2023-02-28T13:09:10;9.00;;;4.40;;
74401;SDS011;62837;51.082;13.744;2023-02-28T13:11:43;8.60;;;5.10;;
74401;SDS011;62837;51.082;13.744;2023-02-28T13:14:26;10.90;;;5.40;;
74401;SDS011;62837;51.082;13.744;2023-02-28T13:17:03;8.80;;;5.10;;
74401;SDS011;62837;51.082;13.744;2023-02-28T13:19:43;8.80;;;5.60;;
74401;SDS011;62837;51.082;13.744;2023-02-28T13:22:18;6.60;;;4.10;;
74401;SDS011;62837;51.082;13.744;2023-02-28T13:25:15;9.90;;;5.40;;
74401;SDS011;62837;51.082;13.744;2023-02-28T13:31:34;9.40;;;5.30;;
74401;SDS011;62837;51.082;13.744;2023-02-28T13:35:11;7.50;;;4.30;;
74401;SDS011;62837;51.082;13.744;2023-02-28T13:44:12;8.80;;;5.00;;
74401;SDS011;62837;51.082;13.744;2023-02-28T13:52:47;12.60;;;6.10;;
74401;SDS011;62837;51.082;13.744;2023-02-28T13:55:28;10.00;;;5.90;;
74401;SDS011;62837;51.082;13.744;2023-02-28T13:58:08;9.90;;;5.20;;
74401;SDS011;62837;51.082;13.744;2023-02-28T14:00:56;10.70;;;5.80;;
74401;SDS011;62837;51.082;13.744;2023-02-28T14:03:43;9.90;;;5.50;;
74401;SDS011;62837;51.082;13.744;2023-02-28T14:06:28;10.00;;;5.50;;
74401;SDS011;62837;51.082;13.744;2023-02-28T14:09:02;8.80;;;3.80;;
74401;SDS011;62837;51.082;13.744;2023-02-28T14:11:45;12.20;;;5.90;;
74401;SDS011;62837;51.082;13.744;2023-02-28T14:17:18;6.60;;;3.90;;
74401;SDS011;62837;51.082;13.744;2023-02-28T14:19:49;12.00;;;5.70;;
74401;SDS011;62837;51.082;13.744;2023-02-28T14:22:27;10.00;;;5.60;;
74401;SDS011;62837;51.082;13.744;2023-02-28T14:25:18;4.80;;;2.50;;
74401;SDS011;62837;51.082;13.744;2023-02-28T14:28:04;10.30;;;5.30;;
74401;SDS011;62837;51.082;13.744;2023-02-28T14:30:59;10.00;;;6.10;;
74401;SDS011;62837;51.082;13.744;2023-02-28T14:33:41;8.50;;;4.00;;
74401;SDS011;62837;51.082;13.744;2023-02-28T14:41:30;10.60;;;5.10;;
74401;SDS011;62837;51.082;13.744;2023-02-28T14:44:12;9.70;;;5.80;;
74401;SDS011;62837;51.082;13.744;2023-02-28T14:46:45;9.50;;;5.10;;
74401;SDS011;62837;51.082;13.744;2023-02-28T14:49:19;12.40;;;6.90;;
74401;SDS011;62837;51.082;13.744;2023-02-28T14:52:02;9.70;;;4.80;;
74401;SDS011;62837;51.082;13.744;2023-02-28T14:54:38;9.90;;;5.40;;
74401;SDS011;62837;51.082;13.744;2023-02-28T14:57:21;9.50;;;5.20;;
74401;SDS011;62837;51.082;13.744;2023-02-28T15:00:00;9.60;;;5.90;;
74401;SDS011;62837;51.082;13.744;2023-02-28T15:02:39;11.80;;;4.70;;
74401;SDS011;62837;51.082;13.744;2023-02-28T15:05:16;11.60;;;5.70;;
74401;SDS011;62837;51.082;13.744;2023-02-28T15:08:02;11.10;;;5.10;;
74401;SDS011;62837;51.082;13.744;2023-02-28T15:10:36;10.40;;;6.20;;
74401;SDS011;62837;51.082;13.744;2023-02-28T15:13:10;10.70;;;5.50;;
74401;SDS011;62837;51.082;13.744;2023-02-28T15:15:44;11.80;;;6.00;;
74401;SDS011;62837;51.082;13.744;2023-02-28T15:18:39;10.30;;;5.80;;
74401;SDS011;62837;51.082;13.744;2023-02-28T15:21:16;10.40;;;6.00;;
74401;SDS011;62837;51.082;13.744;2023-02-28T15:23:50;10.50;;;5.90;;
74401;SDS011;62837;51.082;13.744;2023-02-28T15:26:23;10.80;;;6.30;;
74401;SDS011;62837;51.082;13.744;2023-02-28T15:28:59;10.50;;;5.90;;
74401;SDS011;62837;51.082;13.744;2023-02-28T15:31:34;11.80;;;5.50;;
74401;SDS011;62837;51.082;13.744;2023-02-28T15:34:29;12.00;;;5.90;;
74401;SDS011;62837;51.082;13.744;2023-02-28T15:37:33;12.90;;;6.70;;
74401;SDS011;62837;51.082;13.744;2023-02-28T15:40:14;11.30;;;6.50;;
74401;SDS011;62837;51.082;13.744;2023-02-28T15:42:59;10.60;;;5.70;;
74401;SDS011;62837;51.082;13.744;2023-02-28T15:45:35;11.00;;;6.20;;
74401;SDS011;62837;51.082;13.744;2023-02-28T15:48:14;10.80;;;5.90;;
74401;SDS011;62837;51.082;13.744;2023-02-28T15:50:50;11.40;;;6.20;;
74401;SDS011;62837;51.082;13.744;2023-02-28T15:53:23;11.40;;;6.30;;